createdAt,value
2022-11-16T00:00:36.179Z,1.01
2022-11-16T00:04:00.947Z,1.01
2022-11-16T00:07:23.081Z,0.98
2022-11-16T00:10:45.179Z,1.01
2022-11-16T00:14:09.137Z,1.04
2022-11-16T00:17:31.252Z,0.99
2022-11-16T00:20:53.510Z,1.03
2022-11-16T00:24:16.648Z,1.03
2022-11-16T00:27:38.566Z,1.02
2022-11-16T00:31:03.197Z,0.99
2022-11-16T00:34:26.065Z,1.02
2022-11-16T00:37:48.062Z,0.87
2022-11-16T00:41:10.721Z,1.03
2022-11-16T00:44:33.095Z,1.01
2022-11-16T00:48:00.425Z,0.99
2022-11-16T00:51:22.625Z,1.06
2022-11-16T00:54:44.415Z,1.05
2022-11-16T00:58:06.796Z,1.08
2022-11-16T01:01:29.077Z,1.08
2022-11-16T01:04:52.582Z,1.13
2022-11-16T01:08:14.998Z,1.13
2022-11-16T01:11:54.397Z,1.14
2022-11-16T01:15:17.992Z,1.15
2022-11-16T01:18:40.097Z,1.14
2022-11-16T01:22:03.829Z,1.14
2022-11-16T01:25:26.110Z,1.16
2022-11-16T01:28:48.039Z,1.17
2022-11-16T01:32:10.596Z,1.19
2022-11-16T01:35:32.523Z,1.18
2022-11-16T01:38:56.092Z,1.21
2022-11-16T01:42:19.870Z,1.21
2022-11-16T01:45:43.277Z,1.21
2022-11-16T01:49:08.353Z,1.23
2022-11-16T01:52:34.210Z,1.22
2022-11-16T01:55:57.543Z,1.19
2022-11-16T01:59:20.236Z,1.25
2022-11-16T02:02:43.157Z,1.19
2022-11-16T02:06:35.491Z,1.26
2022-11-16T02:10:10.813Z,1.25
2022-11-16T02:13:45.651Z,1.31
2022-11-16T02:17:18.026Z,1.26
2022-11-16T02:21:09.683Z,1.30
2022-11-16T02:24:44.888Z,1.31
2022-11-16T02:28:28.601Z,1.31
2022-11-16T02:31:59.529Z,1.31
2022-11-16T02:35:28.494Z,1.31
2022-11-16T02:38:55.798Z,1.34
2022-11-16T02:42:23.087Z,1.29
2022-11-16T02:45:50.220Z,1.34
2022-11-16T02:49:18.964Z,1.36
2022-11-16T02:52:41.157Z,1.36
2022-11-16T02:56:02.869Z,1.34
2022-11-16T02:59:37.337Z,1.36
2022-11-16T03:03:12.316Z,1.36
2022-11-16T03:06:41.726Z,1.37
2022-11-16T03:10:03.975Z,1.34
2022-11-16T03:13:27.484Z,1.37
2022-11-16T03:16:52.613Z,1.20
2022-11-16T03:20:17.767Z,1.35
2022-11-16T03:23:41.472Z,1.32
2022-11-16T03:27:10.066Z,1.33
2022-11-16T03:30:35.397Z,1.31
2022-11-16T03:34:01.888Z,1.29
2022-11-16T03:37:25.507Z,1.25
2022-11-16T03:40:51.434Z,1.06
2022-11-16T03:44:16.176Z,1.21
2022-11-16T03:47:38.058Z,1.19
2022-11-16T03:51:00.313Z,1.17
2022-11-16T03:54:22.123Z,1.16
2022-11-16T03:57:45.431Z,1.08
2022-11-16T04:01:07.660Z,1.11
2022-11-16T04:04:46.954Z,1.09
2022-11-16T04:08:30.687Z,1.10
2022-11-16T04:12:10.144Z,1.10
2022-11-16T04:15:50.634Z,1.11
2022-11-16T04:19:29.794Z,1.12
2022-11-16T04:23:13.512Z,1.11
2022-11-16T04:26:50.319Z,1.09
2022-11-16T04:30:13.070Z,1.06
2022-11-16T04:34:04.961Z,1.05
2022-11-16T04:37:44.149Z,0.98
2022-11-16T04:41:28.998Z,1.00
2022-11-16T04:45:08.283Z,1.07
2022-11-16T04:48:30.336Z,1.08
2022-11-16T04:51:53.583Z,1.06
2022-11-16T04:55:15.741Z,1.06
2022-11-16T04:58:37.595Z,1.09
2022-11-16T05:02:11.734Z,1.09
2022-11-16T05:05:33.240Z,1.07
2022-11-16T05:08:56.242Z,1.07
2022-11-16T05:12:19.995Z,1.05
2022-11-16T05:15:42.070Z,1.04
2022-11-16T05:19:21.376Z,1.03
2022-11-16T05:22:43.600Z,1.00
2022-11-16T05:26:07.252Z,0.99
2022-11-16T05:29:32.232Z,0.95
2022-11-16T05:32:54.077Z,0.97
2022-11-16T05:36:16.178Z,0.95
2022-11-16T05:39:39.192Z,0.94
2022-11-16T05:43:02.946Z,0.93
2022-11-16T05:46:25.814Z,0.89
2022-11-16T05:49:47.610Z,0.89
2022-11-16T05:53:09.715Z,0.86
2022-11-16T05:56:32.032Z,0.93
2022-11-16T05:59:55.306Z,0.85
2022-11-16T06:03:17.172Z,0.88
2022-11-16T06:06:39.539Z,0.85
2022-11-16T06:10:01.658Z,0.78
2022-11-16T06:13:24.106Z,0.73
2022-11-16T06:16:47.414Z,0.72
2022-11-16T06:20:10.343Z,0.73
2022-11-16T06:23:32.024Z,0.73
2022-11-16T06:26:54.161Z,0.61
2022-11-16T06:30:16.983Z,0.66
2022-11-16T06:33:40.086Z,0.64
2022-11-16T06:37:02.137Z,0.63
2022-11-16T06:40:23.994Z,0.48
2022-11-16T06:43:46.026Z,0.59
2022-11-16T06:47:07.966Z,0.59
2022-11-16T06:50:30.991Z,0.59
2022-11-16T06:53:52.790Z,0.57
2022-11-16T06:57:14.570Z,0.59
2022-11-16T07:00:36.670Z,0.57
2022-11-16T07:03:58.801Z,0.52
2022-11-16T07:07:22.289Z,0.54
2022-11-16T07:10:44.399Z,0.53
2022-11-16T07:14:06.055Z,0.59
2022-11-16T07:17:28.313Z,0.60
2022-11-16T07:20:50.390Z,0.64
2022-11-16T07:24:14.020Z,0.65
2022-11-16T07:27:36.247Z,0.65
2022-11-16T07:31:02.812Z,0.73
2022-11-16T07:34:24.698Z,0.76
2022-11-16T07:37:46.763Z,0.79
2022-11-16T07:41:12.426Z,0.63
2022-11-16T07:44:34.293Z,0.87
2022-11-16T07:47:56.371Z,0.87
2022-11-16T07:51:19.722Z,0.80
2022-11-16T07:54:41.798Z,0.88
2022-11-16T07:58:05.363Z,0.90
2022-11-16T08:01:26.934Z,0.94
2022-11-16T08:04:49.096Z,0.94
2022-11-16T08:08:10.725Z,0.91
2022-11-16T08:11:32.669Z,0.95
2022-11-16T08:14:56.126Z,0.95
2022-11-16T08:18:17.818Z,0.99
2022-11-16T08:21:39.767Z,1.00
2022-11-16T08:25:02.258Z,1.03
2022-11-16T08:28:24.362Z,1.07
2022-11-16T08:31:48.360Z,1.04
2022-11-16T08:35:10.617Z,1.12
2022-11-16T08:38:32.935Z,1.12
2022-11-16T08:41:54.785Z,1.12
2022-11-16T08:45:17.956Z,1.19
2022-11-16T08:48:41.535Z,1.18
2022-11-16T08:52:03.701Z,1.26
2022-11-16T08:55:28.379Z,1.20
2022-11-16T08:58:55.275Z,1.24
2022-11-16T09:02:25.511Z,1.25
2022-11-16T09:05:48.905Z,1.27
2022-11-16T09:09:10.904Z,1.28
2022-11-16T09:12:33.005Z,1.35
2022-11-16T09:15:58.786Z,1.42
2022-11-16T09:19:21.120Z,1.44
2022-11-16T09:22:44.447Z,1.44
2022-11-16T09:26:07.344Z,1.38
2022-11-16T09:29:29.222Z,1.41
2022-11-16T09:32:51.343Z,1.40
2022-11-16T09:36:13.327Z,1.45
2022-11-16T09:39:38.347Z,1.47
2022-11-16T09:43:07.986Z,1.49
2022-11-16T09:46:32.976Z,1.50
2022-11-16T09:50:02.718Z,1.46
2022-11-16T09:53:32.870Z,1.44
2022-11-16T09:57:01.291Z,1.38
2022-11-16T10:00:27.012Z,1.30
2022-11-16T10:03:53.858Z,1.03
2022-11-16T10:07:18.199Z,0.98
2022-11-16T10:10:45.831Z,1.10
2022-11-16T10:14:25.817Z,0.98
2022-11-16T10:18:07.576Z,1.03
2022-11-16T10:21:45.588Z,1.01
2022-11-16T10:25:16.656Z,1.06
2022-11-16T10:29:06.223Z,1.04
2022-11-16T10:32:37.498Z,1.10
2022-11-16T10:36:00.432Z,1.12
2022-11-16T10:39:23.702Z,1.16
2022-11-16T10:42:49.424Z,1.18
2022-11-16T10:46:18.934Z,1.19
2022-11-16T10:49:51.220Z,1.23
2022-11-16T10:53:16.221Z,1.24
2022-11-16T10:56:40.213Z,1.26
2022-11-16T11:00:35.369Z,1.26
2022-11-16T11:03:58.493Z,1.31
2022-11-16T11:07:32.836Z,1.34
2022-11-16T12:57:49.251Z,1.05
2022-11-16T13:01:19.173Z,1.02
2022-11-16T13:04:46.544Z,0.99
2022-11-16T13:08:16.187Z,0.96
2022-11-16T13:11:40.984Z,0.94
2022-11-16T13:15:06.200Z,0.90
2022-11-16T13:18:30.555Z,0.86
2022-11-16T13:21:59.991Z,0.80
2022-11-16T13:25:25.814Z,0.80
2022-11-16T13:28:56.370Z,0.72
2022-11-16T13:32:26.456Z,0.78
2022-11-16T13:35:48.548Z,0.79
2022-11-16T13:39:21.465Z,0.70
2022-11-16T13:42:58.677Z,0.74
2022-11-16T13:46:48.798Z,0.77
2022-11-16T13:50:05.806Z,0.77
2022-11-16T13:57:24.729Z,0.76
2022-11-16T14:00:57.843Z,0.75
2022-11-16T14:04:57.009Z,0.74
2022-11-16T14:08:54.726Z,0.75
2022-11-16T14:12:56.118Z,0.75
2022-11-16T14:16:48.428Z,0.72
2022-11-16T14:20:17.147Z,0.73
2022-11-16T14:24:10.285Z,0.65
2022-11-16T14:27:40.031Z,0.71
2022-11-16T14:31:11.224Z,0.68
2022-11-16T14:34:43.326Z,0.54
2022-11-16T14:38:08.771Z,0.71
2022-11-16T14:41:30.854Z,0.69
2022-11-16T14:45:01.858Z,0.73
2022-11-16T14:48:26.275Z,0.70
2022-11-16T14:51:55.075Z,0.71
2022-11-16T14:55:20.834Z,0.69
2022-11-16T14:58:52.318Z,0.66
2022-11-16T15:02:19.209Z,0.62
2022-11-16T15:05:41.496Z,0.59
2022-11-16T15:09:06.759Z,0.62
2022-11-16T15:12:46.043Z,0.59
2022-11-16T15:16:11.788Z,0.57
2022-11-16T15:19:33.564Z,0.47
2022-11-16T15:22:58.279Z,0.51
2022-11-16T15:26:23.475Z,0.43
2022-11-16T15:29:45.315Z,0.51
2022-11-16T15:33:11.803Z,0.51
2022-11-16T15:36:40.160Z,0.50
2022-11-16T15:40:03.549Z,0.49
2022-11-16T15:43:32.727Z,0.49
2022-11-16T15:46:57.481Z,0.49
2022-11-16T15:50:20.044Z,0.47
2022-11-16T15:53:43.568Z,0.45
2022-11-16T15:57:09.752Z,0.42
2022-11-16T16:00:36.557Z,0.34
2022-11-16T16:04:01.660Z,0.41
2022-11-16T16:07:39.856Z,0.39
2022-11-16T16:11:09.910Z,0.41
2022-11-16T16:14:32.192Z,0.37
2022-11-16T16:17:56.167Z,0.37
2022-11-16T16:21:18.939Z,0.37
2022-11-16T16:24:44.556Z,0.30
2022-11-16T16:28:07.517Z,0.33
2022-11-16T21:21:45.963Z,-0.60
2022-11-16T21:25:08.553Z,-0.61
2022-11-16T21:28:30.636Z,-0.60
2022-11-16T21:31:52.398Z,-0.58
2022-11-16T21:35:14.876Z,-0.60
2022-11-16T21:38:38.696Z,-0.55
2022-11-16T21:42:00.823Z,-0.59
2022-11-16T21:45:22.860Z,-0.62
2022-11-16T21:48:47.322Z,-0.62
2022-11-16T21:52:09.224Z,-0.60
2022-11-16T21:55:35.533Z,-0.58
2022-11-16T21:58:57.290Z,-0.57
2022-11-16T22:02:19.074Z,-0.60
2022-11-16T22:05:59.045Z,-0.56
2022-11-16T22:09:20.639Z,-0.54
2022-11-16T22:12:44.273Z,-0.55
2022-11-16T22:16:07.949Z,-0.58
2022-11-16T22:19:30.171Z,-0.58
2022-11-16T22:22:52.336Z,-0.58
2022-11-16T22:26:15.172Z,-0.62
2022-11-16T22:29:38.788Z,-0.57
2022-11-16T22:33:00.859Z,-0.57
2022-11-16T22:36:22.996Z,-0.57
2022-11-16T22:39:48.229Z,-0.56
2022-11-16T22:43:10.527Z,-0.57
2022-11-16T22:46:34.024Z,-0.56
2022-11-16T22:49:55.872Z,-0.56
2022-11-16T22:53:18.095Z,-0.56
2022-11-16T22:56:40.541Z,-0.52
2022-11-16T23:00:03.183Z,-0.54
2022-11-16T23:03:26.751Z,-0.52
2022-11-16T23:06:49.494Z,-0.50
2022-11-16T23:10:11.915Z,-0.51
2022-11-16T23:13:59.755Z,-0.50
2022-11-16T23:17:22.096Z,-0.49
2022-11-16T23:21:03.555Z,-0.50
2022-11-16T23:24:43.337Z,-0.51
2022-11-16T23:28:08.183Z,-0.51
2022-11-16T23:31:30.183Z,-0.52
2022-11-16T23:34:52.322Z,-0.52
2022-11-16T23:38:16.043Z,-0.51
2022-11-16T23:41:57.719Z,-0.51
2022-11-16T23:45:20.710Z,-0.52
2022-11-16T23:48:42.775Z,-0.67
2022-11-16T23:52:05.703Z,-0.58
2022-11-16T23:55:29.559Z,-0.57
2022-11-16T23:58:51.364Z,-0.61
